Time;durP1;ratioP1;P1;durP2;ratioP2;P2;SDS_P1;SDS_P2;PMS_P1;PMS_P2;Temp;Humidity;BMP_temperature;BMP_pressure;BME280_temperature;BME280_humidity;BME280_pressure;Samples;Min_cycle;Max_cycle;Signal;HPM_P1;HPM_P2
2023/08/04 00:02:11;;;;;;;1.20;0.70;;;;;;;;;;5118446;28;20276;-68
2023/08/04 00:04:39;;;;;;;1.05;0.90;;;;;;;;;;5117793;28;20294;-68
2023/08/04 00:07:08;;;;;;;0.85;0.65;;;;;;;;;;5118046;28;20575;-68
2023/08/04 00:09:35;;;;;;;1.27;0.90;;;;;;;;;;5117277;28;20218;-68
2023/08/04 00:12:02;;;;;;;0.80;0.80;;;;;;;;;;5117698;28;20199;-68
2023/08/04 00:14:30;;;;;;;1.27;0.80;;;;;;;;;;5117172;28;20666;-68
2023/08/04 00:16:57;;;;;;;1.40;0.88;;;;;;;;;;5117785;28;20282;-68
2023/08/04 00:19:25;;;;;;;2.28;1.00;;;;;;;;;;5117864;28;20361;-68
2023/08/04 00:21:54;;;;;;;0.80;0.80;;;;;;;;;;5117597;28;20235;-68
2023/08/04 00:24:21;;;;;;;0.93;0.70;;;;;;;;;;5117680;28;20250;-68
2023/08/04 00:26:48;;;;;;;1.13;0.80;;;;;;;;;;5117836;28;20285;-68
2023/08/04 00:29:16;;;;;;;1.05;0.93;;;;;;;;;;5117146;28;20293;-68
2023/08/04 00:31:43;;;;;;;1.08;0.90;;;;;;;;;;5117082;28;20253;-68
2023/08/04 00:34:11;;;;;;;1.35;1.00;;;;;;;;;;5117858;28;20483;-69
2023/08/04 00:36:38;;;;;;;1.25;0.95;;;;;;;;;;5117806;28;20575;-69
2023/08/04 00:39:07;;;;;;;1.00;0.88;;;;;;;;;;5117761;28;20245;-69
2023/08/04 00:41:34;;;;;;;1.00;0.88;;;;;;;;;;5117344;28;20230;-69
2023/08/04 00:44:02;;;;;;;1.05;0.95;;;;;;;;;;5117574;28;20202;-68
2023/08/04 00:46:30;;;;;;;1.15;1.02;;;;;;;;;;5117052;28;20203;-68
2023/08/04 00:48:57;;;;;;;2.45;1.05;;;;;;;;;;5119164;28;20600;-69
2023/08/04 00:51:25;;;;;;;0.93;0.82;;;;;;;;;;5121567;28;20622;-69
2023/08/04 00:53:52;;;;;;;1.13;0.80;;;;;;;;;;5121430;28;20337;-68
2023/08/04 00:56:21;;;;;;;1.25;1.00;;;;;;;;;;5121474;28;20760;-69
2023/08/04 00:58:49;;;;;;;1.23;1.00;;;;;;;;;;5121416;28;20209;-68
2023/08/04 01:01:16;;;;;;;1.02;0.90;;;;;;;;;;5121511;28;20293;-68
2023/08/04 01:03:44;;;;;;;1.35;1.10;;;;;;;;;;5121289;28;20235;-69
2023/08/04 01:06:16;;;;;;;1.20;0.93;;;;;;;;;;5121291;28;20203;-68
2023/08/04 01:08:50;;;;;;;1.73;1.02;;;;;;;;;;5121733;28;20211;-69
2023/08/04 01:11:20;;;;;;;1.50;1.08;;;;;;;;;;5121535;28;20293;-68
2023/08/04 01:13:49;;;;;;;1.05;0.93;;;;;;;;;;5121311;28;20199;-68
2023/08/04 01:16:17;;;;;;;1.40;0.90;;;;;;;;;;5121100;28;20298;-68
2023/08/04 01:18:44;;;;;;;1.10;1.00;;;;;;;;;;5121039;28;20310;-68
2023/08/04 01:21:13;;;;;;;1.10;1.00;;;;;;;;;;5121202;28;20285;-69
2023/08/04 01:23:40;;;;;;;1.50;1.00;;;;;;;;;;5120799;28;20235;-69
2023/08/04 01:26:10;;;;;;;0.95;0.90;;;;;;;;;;5120708;28;20210;-69
2023/08/04 01:28:38;;;;;;;1.10;1.00;;;;;;;;;;5120922;28;20203;-69
2023/08/04 01:31:06;;;;;;;1.40;1.00;;;;;;;;;;5120606;28;20305;-68
2023/08/04 01:33:34;;;;;;;1.00;0.70;;;;;;;;;;5120883;28;20195;-69
2023/08/04 01:36:01;;;;;;;1.08;0.85;;;;;;;;;;5120697;28;20293;-69
2023/08/04 01:38:30;;;;;;;1.60;0.90;;;;;;;;;;5120709;28;20203;-69
2023/08/04 01:40:57;;;;;;;1.33;0.90;;;;;;;;;;5120599;28;20587;-68
2023/08/04 01:43:25;;;;;;;0.95;0.80;;;;;;;;;;5120152;28;20321;-68
2023/08/04 01:45:52;;;;;;;1.67;0.95;;;;;;;;;;5120518;28;20306;-68
2023/08/04 01:48:20;;;;;;;1.02;0.90;;;;;;;;;;5120646;28;20202;-68
2023/08/04 01:50:47;;;;;;;1.50;0.80;;;;;;;;;;5120266;28;20673;-68
2023/08/04 01:53:15;;;;;;;0.95;0.80;;;;;;;;;;5120221;28;20199;-68
2023/08/04 01:55:43;;;;;;;1.20;1.10;;;;;;;;;;5120289;28;20213;-69
2023/08/04 01:58:11;;;;;;;0.80;0.75;;;;;;;;;;5120316;28;20201;-68
2023/08/04 02:00:38;;;;;;;1.10;0.80;;;;;;;;;;5119449;28;20202;-68
2023/08/04 02:03:05;;;;;;;1.63;1.00;;;;;;;;;;5120410;28;20322;-68
2023/08/04 02:05:33;;;;;;;1.58;0.90;;;;;;;;;;5120525;28;20203;-68
2023/08/04 02:08:00;;;;;;;0.98;0.70;;;;;;;;;;5120376;28;20202;-68
2023/08/04 02:10:28;;;;;;;1.08;0.98;;;;;;;;;;5120064;28;20570;-68
2023/08/04 02:12:57;;;;;;;1.55;0.93;;;;;;;;;;5120140;28;20593;-68
2023/08/04 02:15:24;;;;;;;0.93;0.70;;;;;;;;;;5119730;28;20215;-68
2023/08/04 02:17:51;;;;;;;1.05;0.90;;;;;;;;;;5119909;28;20317;-68
2023/08/04 02:20:19;;;;;;;1.05;0.90;;;;;;;;;;5119854;28;20195;-68
2023/08/04 02:22:46;;;;;;;0.75;0.73;;;;;;;;;;5120283;28;20254;-68
2023/08/04 02:25:14;;;;;;;1.05;0.82;;;;;;;;;;5119826;28;20230;-69
2023/08/04 02:27:41;;;;;;;1.00;0.82;;;;;;;;;;5119893;28;20195;-68
2023/08/04 02:30:10;;;;;;;2.15;0.90;;;;;;;;;;5119739;28;20285;-68
2023/08/04 02:32:38;;;;;;;1.10;1.00;;;;;;;;;;5119549;28;20286;-69
2023/08/04 02:35:06;;;;;;;0.98;0.90;;;;;;;;;;5119688;28;20203;-68
2023/08/04 02:37:33;;;;;;;1.45;0.85;;;;;;;;;;5119172;28;20289;-68
2023/08/04 02:40:00;;;;;;;0.85;0.80;;;;;;;;;;5119407;28;20605;-68
2023/08/04 02:42:28;;;;;;;1.30;1.00;;;;;;;;;;5119324;28;20614;-68
2023/08/04 02:44:56;;;;;;;1.55;0.90;;;;;;;;;;5119266;28;20593;-68
2023/08/04 02:47:24;;;;;;;0.80;0.80;;;;;;;;;;5118626;28;20565;-68
2023/08/04 02:49:53;;;;;;;0.80;0.80;;;;;;;;;;5119471;28;20209;-68
2023/08/04 02:52:20;;;;;;;1.30;0.80;;;;;;;;;;5118605;28;20323;-68
2023/08/04 02:54:47;;;;;;;0.80;0.80;;;;;;;;;;5118940;28;20211;-69
2023/08/04 02:57:15;;;;;;;0.73;0.73;;;;;;;;;;5119114;28;20740;-69
2023/08/04 02:59:42;;;;;;;1.15;0.80;;;;;;;;;;5118888;28;20303;-69
2023/08/04 03:02:09;;;;;;;0.90;0.90;;;;;;;;;;5119188;28;20310;-68
2023/08/04 03:04:39;;;;;;;1.77;1.08;;;;;;;;;;5118957;28;20206;-68
2023/08/04 03:07:07;;;;;;;0.80;0.80;;;;;;;;;;5118498;28;20282;-69
2023/08/04 03:09:34;;;;;;;2.08;0.90;;;;;;;;;;5119026;28;20540;-69
2023/08/04 03:12:02;;;;;;;1.10;1.00;;;;;;;;;;5118180;28;20207;-69
2023/08/04 03:14:30;;;;;;;1.00;0.90;;;;;;;;;;5119183;28;20207;-68
2023/08/04 03:16:57;;;;;;;1.52;0.90;;;;;;;;;;5118726;28;20338;-68
2023/08/04 03:19:25;;;;;;;0.77;0.77;;;;;;;;;;5118467;28;20517;-68
2023/08/04 03:21:54;;;;;;;0.95;0.90;;;;;;;;;;5118937;28;20207;-68
2023/08/04 03:24:21;;;;;;;1.25;0.82;;;;;;;;;;5118791;28;20227;-68
2023/08/04 03:26:48;;;;;;;1.13;0.93;;;;;;;;;;5118512;28;20215;-68
2023/08/04 03:29:16;;;;;;;1.45;0.90;;;;;;;;;;5118310;28;20301;-68
2023/08/04 03:31:43;;;;;;;1.00;0.90;;;;;;;;;;5118229;28;20294;-68
2023/08/04 03:34:11;;;;;;;1.67;0.98;;;;;;;;;;5118326;28;20282;-69
2023/08/04 03:36:38;;;;;;;1.10;1.00;;;;;;;;;;5117650;28;20453;-69
2023/08/04 03:39:07;;;;;;;0.75;0.57;;;;;;;;;;5118586;28;20291;-69
2023/08/04 03:41:34;;;;;;;0.70;0.70;;;;;;;;;;5118252;28;20653;-69
2023/08/04 03:44:02;;;;;;;1.00;0.90;;;;;;;;;;5117778;28;20227;-69
2023/08/04 03:46:29;;;;;;;1.67;0.90;;;;;;;;;;5117397;28;20286;-68
2023/08/04 03:48:57;;;;;;;0.80;0.80;;;;;;;;;;5117642;28;20217;-68
2023/08/04 03:51:24;;;;;;;1.65;0.93;;;;;;;;;;5117610;28;20241;-68
2023/08/04 03:53:51;;;;;;;1.42;1.10;;;;;;;;;;5117776;28;20210;-68
2023/08/04 03:56:20;;;;;;;1.33;1.00;;;;;;;;;;5117252;28;20203;-69
2023/08/04 03:58:48;;;;;;;1.17;1.00;;;;;;;;;;5117576;28;20210;-69
2023/08/04 04:01:15;;;;;;;1.45;1.00;;;;;;;;;;5117462;28;20297;-69
2023/08/04 04:03:42;;;;;;;1.20;1.10;;;;;;;;;;5117531;28;20237;-69
2023/08/04 04:06:10;;;;;;;1.30;1.00;;;;;;;;;;5117514;28;20203;-69
2023/08/04 04:08:38;;;;;;;1.08;0.93;;;;;;;;;;5117839;28;20203;-69
2023/08/04 04:11:05;;;;;;;1.48;1.20;;;;;;;;;;5117040;28;20220;-69
2023/08/04 04:13:34;;;;;;;2.25;1.20;;;;;;;;;;5117654;28;20503;-68
2023/08/04 04:16:02;;;;;;;1.23;0.90;;;;;;;;;;5117556;28;20596;-68
2023/08/04 04:18:29;;;;;;;1.08;0.98;;;;;;;;;;5117937;28;20268;-68
2023/08/04 04:20:56;;;;;;;0.95;0.90;;;;;;;;;;5117523;28;20264;-68
2023/08/04 04:23:24;;;;;;;1.20;1.10;;;;;;;;;;5117374;28;20233;-68
2023/08/04 04:25:51;;;;;;;1.73;1.10;;;;;;;;;;5117392;28;20211;-69
2023/08/04 04:28:19;;;;;;;2.10;0.90;;;;;;;;;;5117200;28;20286;-68
2023/08/04 04:30:48;;;;;;;1.20;1.10;;;;;;;;;;5116875;28;20209;-68
2023/08/04 04:33:15;;;;;;;1.95;1.10;;;;;;;;;;5116537;28;20351;-68
2023/08/04 04:35:49;;;;;;;1.25;1.05;;;;;;;;;;5116504;28;20209;-69
2023/08/04 04:38:16;;;;;;;1.30;1.08;;;;;;;;;;5116314;28;20586;-68
2023/08/04 04:40:43;;;;;;;1.20;1.10;;;;;;;;;;5117056;28;20285;-69
2023/08/04 04:43:11;;;;;;;2.20;1.30;;;;;;;;;;5116739;28;20223;-69
2023/08/04 04:45:40;;;;;;;0.95;0.93;;;;;;;;;;5116985;28;20211;-68
2023/08/04 04:48:09;;;;;;;1.00;0.90;;;;;;;;;;5116539;28;20202;-68
2023/08/04 04:50:37;;;;;;;1.60;1.00;;;;;;;;;;5116619;28;20629;-68
2023/08/04 04:53:04;;;;;;;1.33;1.13;;;;;;;;;;5117339;28;20525;-68
2023/08/04 04:55:31;;;;;;;1.48;1.00;;;;;;;;;;5117248;28;20213;-68
2023/08/04 04:57:59;;;;;;;1.10;0.90;;;;;;;;;;5116541;28;20203;-68
2023/08/04 05:00:26;;;;;;;1.40;1.30;;;;;;;;;;5116716;28;20210;-68
2023/08/04 05:02:54;;;;;;;3.15;1.25;;;;;;;;;;5116083;28;20203;-68
2023/08/04 05:05:22;;;;;;;2.17;1.20;;;;;;;;;;5116070;28;20299;-68
2023/08/04 05:07:50;;;;;;;1.40;1.00;;;;;;;;;;5116377;28;20205;-69
2023/08/04 05:10:18;;;;;;;1.45;1.20;;;;;;;;;;5117070;28;20306;-69
2023/08/04 05:12:45;;;;;;;0.88;0.88;;;;;;;;;;5116788;28;20693;-69
2023/08/04 05:15:12;;;;;;;1.65;1.23;;;;;;;;;;5116683;28;20202;-68
2023/08/04 05:17:40;;;;;;;1.10;1.00;;;;;;;;;;5116607;28;20302;-68
2023/08/04 05:20:09;;;;;;;1.70;1.00;;;;;;;;;;5115936;28;20293;-68
2023/08/04 05:22:37;;;;;;;1.42;1.00;;;;;;;;;;5116381;28;20268;-68
2023/08/04 05:25:05;;;;;;;1.40;1.20;;;;;;;;;;5116098;28;20231;-69
2023/08/04 05:27:33;;;;;;;1.17;1.08;;;;;;;;;;5116891;28;20468;-69
2023/08/04 05:30:00;;;;;;;1.35;1.00;;;;;;;;;;5116180;28;20202;-68
2023/08/04 05:32:27;;;;;;;1.30;1.20;;;;;;;;;;5116283;28;20657;-68
2023/08/04 05:34:55;;;;;;;1.20;1.10;;;;;;;;;;5117115;28;20199;-68
2023/08/04 05:37:22;;;;;;;1.63;1.30;;;;;;;;;;5119857;28;20199;-68
2023/08/04 05:39:51;;;;;;;1.42;1.17;;;;;;;;;;5119619;28;20666;-69
2023/08/04 05:42:19;;;;;;;1.77;1.15;;;;;;;;;;5119724;28;20571;-69
2023/08/04 05:44:46;;;;;;;1.48;1.20;;;;;;;;;;5119997;28;20219;-69
2023/08/04 05:47:14;;;;;;;1.10;1.00;;;;;;;;;;5119767;28;20203;-69
2023/08/04 05:49:41;;;;;;;1.20;1.10;;;;;;;;;;5119949;28;20294;-68
2023/08/04 05:52:09;;;;;;;1.20;1.00;;;;;;;;;;5119462;28;20718;-68
2023/08/04 05:54:36;;;;;;;1.45;1.35;;;;;;;;;;5119411;28;20749;-68
2023/08/04 05:57:05;;;;;;;1.50;1.30;;;;;;;;;;5118965;28;20228;-68
2023/08/04 05:59:33;;;;;;;2.00;1.08;;;;;;;;;;5119075;28;20281;-69
2023/08/04 06:02:00;;;;;;;1.38;1.27;;;;;;;;;;5119820;28;20613;-68
2023/08/04 06:04:27;;;;;;;1.50;1.10;;;;;;;;;;5118927;28;20229;-68
2023/08/04 06:06:55;;;;;;;1.70;1.27;;;;;;;;;;5119114;28;20203;-68
2023/08/04 06:09:22;;;;;;;1.23;1.13;;;;;;;;;;5119169;28;20226;-68
2023/08/04 06:11:50;;;;;;;1.65;1.30;;;;;;;;;;5119316;28;20293;-68
2023/08/04 06:14:18;;;;;;;1.33;1.23;;;;;;;;;;5118623;28;20252;-69
2023/08/04 06:16:46;;;;;;;1.65;1.50;;;;;;;;;;5118394;28;20213;-68
2023/08/04 06:19:13;;;;;;;1.92;1.30;;;;;;;;;;5118603;28;20209;-69
2023/08/04 06:21:41;;;;;;;1.70;1.60;;;;;;;;;;5118670;28;20794;-69
2023/08/04 06:24:08;;;;;;;3.78;1.70;;;;;;;;;;5117916;28;20317;-68
2023/08/04 06:26:36;;;;;;;1.65;1.55;;;;;;;;;;5118551;28;20310;-68
2023/08/04 06:29:03;;;;;;;2.28;1.80;;;;;;;;;;5118663;28;20283;-69
2023/08/04 06:31:32;;;;;;;1.77;1.63;;;;;;;;;;5118354;28;20290;-68
2023/08/04 06:33:59;;;;;;;1.65;1.55;;;;;;;;;;5118437;28;20199;-68
2023/08/04 06:36:27;;;;;;;1.75;1.52;;;;;;;;;;5118568;28;20563;-69
2023/08/04 06:38:54;;;;;;;2.85;2.05;;;;;;;;;;5118003;28;20203;-68
2023/08/04 06:41:22;;;;;;;2.10;1.88;;;;;;;;;;5117943;28;20306;-69
2023/08/04 06:43:49;;;;;;;2.33;1.85;;;;;;;;;;5118308;28;20258;-68
2023/08/04 06:46:17;;;;;;;1.95;1.80;;;;;;;;;;5117729;28;20294;-68
2023/08/04 06:48:46;;;;;;;2.13;1.95;;;;;;;;;;5118429;28;20222;-68
2023/08/04 06:51:13;;;;;;;2.53;2.10;;;;;;;;;;5117874;28;20765;-68
2023/08/04 06:53:41;;;;;;;3.35;2.30;;;;;;;;;;5117844;28;20656;-68
2023/08/04 06:56:08;;;;;;;2.50;2.30;;;;;;;;;;5117617;28;20670;-68
2023/08/04 06:58:36;;;;;;;2.88;2.00;;;;;;;;;;5117491;28;20260;-68
2023/08/04 07:01:03;;;;;;;2.60;2.40;;;;;;;;;;5117993;28;20207;-69
2023/08/04 07:03:31;;;;;;;2.55;2.30;;;;;;;;;;5116954;28;20257;-69
2023/08/04 07:06:00;;;;;;;3.33;2.30;;;;;;;;;;5118291;28;20210;-68
2023/08/04 07:08:28;;;;;;;2.40;2.20;;;;;;;;;;5116112;28;20645;-68
2023/08/04 07:10:56;;;;;;;2.40;2.20;;;;;;;;;;5103437;28;20207;-69
2023/08/04 07:13:24;;;;;;;3.58;2.35;;;;;;;;;;5111113;28;20306;-68
2023/08/04 07:15:57;;;;;;;2.50;2.22;;;;;;;;;;5102344;28;20595;-68
2023/08/04 07:18:25;;;;;;;2.63;2.42;;;;;;;;;;5096717;28;20205;-69
2023/08/04 07:20:53;;;;;;;3.08;2.10;;;;;;;;;;5096637;28;20580;-68
2023/08/04 07:23:21;;;;;;;3.28;2.20;;;;;;;;;;5096750;28;20247;-69
2023/08/04 07:25:56;;;;;;;2.45;2.15;;;;;;;;;;5096669;28;20200;-68
2023/08/04 07:28:24;;;;;;;2.20;2.00;;;;;;;;;;5097000;28;20252;-68
2023/08/04 07:30:51;;;;;;;2.85;2.22;;;;;;;;;;5096913;28;20594;-68
2023/08/04 07:33:19;;;;;;;2.92;2.63;;;;;;;;;;5097048;28;20215;-68
2023/08/04 07:35:53;;;;;;;2.30;2.10;;;;;;;;;;5096338;28;20199;-68
2023/08/04 07:38:22;;;;;;;3.03;2.28;;;;;;;;;;5097265;28;20229;-68
2023/08/04 07:40:49;;;;;;;3.00;2.60;;;;;;;;;;5096426;28;20298;-69
2023/08/04 07:43:17;;;;;;;2.35;2.15;;;;;;;;;;5096082;28;20200;-68
2023/08/04 07:45:45;;;;;;;2.95;2.45;;;;;;;;;;5096301;28;20223;-68
2023/08/04 07:48:12;;;;;;;2.40;2.20;;;;;;;;;;5096591;28;20256;-68
2023/08/04 07:50:40;;;;;;;2.30;2.10;;;;;;;;;;5095734;28;20380;-68
2023/08/04 07:53:07;;;;;;;2.45;2.25;;;;;;;;;;5095977;28;20394;-68
2023/08/04 07:55:36;;;;;;;2.75;2.30;;;;;;;;;;5096172;28;20476;-69
2023/08/04 07:58:04;;;;;;;2.40;2.20;;;;;;;;;;5098270;28;20817;-68
2023/08/04 08:00:32;;;;;;;2.15;2.05;;;;;;;;;;5116427;28;20755;-68
2023/08/04 08:02:59;;;;;;;2.10;2.00;;;;;;;;;;5116430;28;20321;-68
2023/08/04 08:05:26;;;;;;;2.60;2.28;;;;;;;;;;5116164;28;20265;-68
2023/08/04 08:07:54;;;;;;;2.78;2.10;;;;;;;;;;5116096;28;20294;-69
2023/08/04 08:10:21;;;;;;;2.38;2.00;;;;;;;;;;5116083;28;20214;-68
2023/08/04 08:12:50;;;;;;;3.72;2.03;;;;;;;;;;5114818;28;20507;-68
2023/08/04 08:15:17;;;;;;;2.10;1.90;;;;;;;;;;5116835;28;20640;-68
2023/08/04 08:17:45;;;;;;;3.03;1.90;;;;;;;;;;5113336;28;20294;-68
2023/08/04 08:20:12;;;;;;;2.35;2.00;;;;;;;;;;5116361;28;20206;-68
2023/08/04 08:22:40;;;;;;;2.38;2.17;;;;;;;;;;5116475;28;20203;-68
2023/08/04 08:25:10;;;;;;;2.00;1.90;;;;;;;;;;5116210;28;20223;-68
2023/08/04 08:27:37;;;;;;;2.30;1.85;;;;;;;;;;5115842;28;20285;-68
2023/08/04 08:30:07;;;;;;;2.20;2.00;;;;;;;;;;5115677;28;20593;-68
2023/08/04 08:32:34;;;;;;;1.95;1.80;;;;;;;;;;5115439;28;20207;-68
2023/08/04 08:35:02;;;;;;;2.17;2.00;;;;;;;;;;5116122;28;20206;-68
2023/08/04 08:37:29;;;;;;;2.30;1.98;;;;;;;;;;5116049;28;20306;-68
2023/08/04 08:39:57;;;;;;;2.00;1.90;;;;;;;;;;5114930;28;20590;-68
2023/08/04 08:42:24;;;;;;;1.98;1.70;;;;;;;;;;5115033;28;20259;-68
2023/08/04 08:44:52;;;;;;;2.00;1.90;;;;;;;;;;5114893;28;20234;-68
2023/08/04 08:47:20;;;;;;;2.20;2.00;;;;;;;;;;5115625;28;20207;-68
2023/08/04 08:49:49;;;;;;;2.15;1.90;;;;;;;;;;5116111;28;20309;-68
2023/08/04 08:52:17;;;;;;;1.83;1.73;;;;;;;;;;5115280;28;20222;-68
2023/08/04 08:54:45;;;;;;;2.60;1.98;;;;;;;;;;5115537;28;20242;-68
2023/08/04 08:57:13;;;;;;;1.83;1.73;;;;;;;;;;5115247;28;20211;-68
2023/08/04 08:59:40;;;;;;;1.85;1.63;;;;;;;;;;5115443;28;20199;-68
2023/08/04 09:02:08;;;;;;;1.80;1.70;;;;;;;;;;5115278;28;20490;-68
2023/08/04 09:04:38;;;;;;;2.00;1.90;;;;;;;;;;5114466;28;20219;-68
2023/08/04 09:07:06;;;;;;;2.60;2.00;;;;;;;;;;5115076;28;20209;-69
2023/08/04 09:09:34;;;;;;;2.10;1.50;;;;;;;;;;5114346;28;20195;-68
2023/08/04 09:12:02;;;;;;;1.60;1.50;;;;;;;;;;5118109;28;20199;-68
2023/08/04 09:14:29;;;;;;;1.90;1.80;;;;;;;;;;5119255;28;20234;-68
2023/08/04 09:16:57;;;;;;;1.80;1.70;;;;;;;;;;5119341;28;20294;-68
2023/08/04 09:19:35;;;;;;;1.60;1.50;;;;;;;;;;5118964;28;20195;-68
2023/08/04 09:22:03;;;;;;;1.70;1.60;;;;;;;;;;5119473;28;20203;-68
2023/08/04 09:24:32;;;;;;;1.80;1.70;;;;;;;;;;5118779;28;20322;-69
2023/08/04 09:27:00;;;;;;;1.83;1.73;;;;;;;;;;5119065;28;20211;-68
2023/08/04 09:29:27;;;;;;;2.10;1.90;;;;;;;;;;5119762;28;20242;-68
2023/08/04 09:31:54;;;;;;;2.05;1.80;;;;;;;;;;5119469;28;20205;-68
2023/08/04 09:34:22;;;;;;;1.67;1.58;;;;;;;;;;5119240;28;20249;-68
2023/08/04 09:36:50;;;;;;;1.70;1.60;;;;;;;;;;5118397;28;20210;-68
2023/08/04 09:39:19;;;;;;;1.60;1.50;;;;;;;;;;5119120;28;20289;-69
2023/08/04 09:41:47;;;;;;;1.58;1.48;;;;;;;;;;5119107;28;20301;-68
2023/08/04 09:44:15;;;;;;;1.80;1.42;;;;;;;;;;5117880;28;20202;-68
2023/08/04 09:46:49;;;;;;;1.50;1.40;;;;;;;;;;5118443;28;20211;-68
2023/08/04 09:49:16;;;;;;;1.60;1.50;;;;;;;;;;5119148;28;20206;-69
2023/08/04 09:51:44;;;;;;;1.52;1.42;;;;;;;;;;5118822;28;20261;-68
2023/08/04 09:54:13;;;;;;;1.40;1.30;;;;;;;;;;5118862;28;20400;-68
2023/08/04 09:56:43;;;;;;;1.60;1.50;;;;;;;;;;5118258;28;20203;-68
2023/08/04 09:59:12;;;;;;;1.63;1.52;;;;;;;;;;5117439;28;20237;-68
2023/08/04 10:01:41;;;;;;;1.80;1.70;;;;;;;;;;5117139;28;20289;-68
2023/08/04 10:04:10;;;;;;;1.63;1.50;;;;;;;;;;5118344;28;20352;-68
2023/08/04 10:06:40;;;;;;;1.60;1.50;;;;;;;;;;5117526;28;20223;-68
2023/08/04 10:09:08;;;;;;;2.08;1.80;;;;;;;;;;5118131;28;20395;-68
2023/08/04 10:11:35;;;;;;;1.55;1.45;;;;;;;;;;5117586;28;20199;-68
2023/08/04 10:14:05;;;;;;;1.65;1.50;;;;;;;;;;5116999;28;20210;-69
2023/08/04 10:16:34;;;;;;;1.80;1.50;;;;;;;;;;5116545;28;20643;-69
2023/08/04 10:19:03;;;;;;;1.70;1.40;;;;;;;;;;5118117;28;20210;-68
2023/08/04 10:21:33;;;;;;;1.35;1.25;;;;;;;;;;5115998;28;20264;-68
2023/08/04 10:24:01;;;;;;;2.42;1.40;;;;;;;;;;5118290;28;20210;-68
2023/08/04 10:26:28;;;;;;;2.22;1.30;;;;;;;;;;5118286;28;20336;-68
2023/08/04 10:29:07;;;;;;;1.40;1.30;;;;;;;;;;5117866;28;20305;-68
2023/08/04 10:31:52;;;;;;;2.20;1.30;;;;;;;;;;5117412;28;20327;-68
2023/08/04 10:34:20;;;;;;;1.50;1.20;;;;;;;;;;5117211;28;20205;-68
2023/08/04 10:37:02;;;;;;;1.60;1.30;;;;;;;;;;5116508;28;20272;-68
2023/08/04 10:39:33;;;;;;;1.73;1.10;;;;;;;;;;5116569;28;20285;-69
2023/08/04 10:42:01;;;;;;;1.33;1.15;;;;;;;;;;5116844;28;20203;-68
2023/08/04 10:44:48;;;;;;;1.70;1.20;;;;;;;;;;5116705;28;20199;-68
2023/08/04 10:47:15;;;;;;;1.70;1.23;;;;;;;;;;5117159;28;20268;-69
2023/08/04 10:49:43;;;;;;;3.08;1.40;;;;;;;;;;5117901;28;20217;-68
2023/08/04 10:52:10;;;;;;;1.23;1.00;;;;;;;;;;5117160;28;20231;-68
2023/08/04 10:54:38;;;;;;;1.67;1.10;;;;;;;;;;5117179;28;20228;-68
2023/08/04 10:57:06;;;;;;;1.10;0.93;;;;;;;;;;5117005;28;20203;-68
2023/08/04 10:59:34;;;;;;;2.20;1.30;;;;;;;;;;5117006;28;20282;-68
2023/08/04 11:02:02;;;;;;;1.73;1.20;;;;;;;;;;5116164;28;20221;-70
2023/08/04 11:04:29;;;;;;;1.20;1.10;;;;;;;;;;5116508;28;20238;-68
2023/08/04 11:06:59;;;;;;;1.13;1.00;;;;;;;;;;5116823;28;20231;-68
2023/08/04 11:09:26;;;;;;;1.10;1.00;;;;;;;;;;5117240;28;20609;-68
2023/08/04 11:11:55;;;;;;;1.10;1.00;;;;;;;;;;5116537;28;20199;-68
2023/08/04 11:14:23;;;;;;;1.52;1.20;;;;;;;;;;5116452;28;20207;-68
2023/08/04 11:16:52;;;;;;;1.02;1.02;;;;;;;;;;5117300;28;20290;-68
2023/08/04 11:19:21;;;;;;;1.92;1.15;;;;;;;;;;5116238;28;20226;-69
2023/08/04 11:21:49;;;;;;;1.73;1.10;;;;;;;;;;5115595;28;20206;-69
2023/08/04 11:24:16;;;;;;;1.45;1.20;;;;;;;;;;5117023;28;20309;-68
2023/08/04 11:26:44;;;;;;;1.20;1.10;;;;;;;;;;5115550;28;20333;-68
2023/08/04 11:29:13;;;;;;;1.02;0.90;;;;;;;;;;5116168;28;20195;-68
2023/08/04 11:31:42;;;;;;;1.45;1.05;;;;;;;;;;5116302;28;20284;-69
2023/08/04 11:34:14;;;;;;;1.35;1.20;;;;;;;;;;5115094;28;20202;-69
2023/08/04 11:36:42;;;;;;;1.20;1.10;;;;;;;;;;5116480;28;20294;-69
2023/08/04 11:39:09;;;;;;;2.10;1.20;;;;;;;;;;5115765;28;20306;-68
2023/08/04 11:41:37;;;;;;;1.00;1.00;;;;;;;;;;5116235;28;20203;-68
2023/08/04 11:44:05;;;;;;;1.15;1.05;;;;;;;;;;5107353;28;20218;-68
2023/08/04 11:46:32;;;;;;;1.35;1.00;;;;;;;;;;5094407;28;20302;-68
2023/08/04 11:49:00;;;;;;;1.10;1.05;;;;;;;;;;5095134;28;20211;-68
2023/08/04 11:51:29;;;;;;;1.30;1.20;;;;;;;;;;5095538;28;20731;-68
2023/08/04 11:53:56;;;;;;;1.35;1.25;;;;;;;;;;5094926;28;20269;-68
2023/08/04 11:56:23;;;;;;;1.20;1.10;;;;;;;;;;5094341;28;20238;-68
2023/08/04 11:58:54;;;;;;;1.35;1.25;;;;;;;;;;5104453;28;20302;-69
2023/08/04 12:01:28;;;;;;;1.20;1.10;;;;;;;;;;5115687;28;20199;-69
2023/08/04 12:03:56;;;;;;;1.30;1.17;;;;;;;;;;5115869;28;20202;-68
2023/08/04 12:06:26;;;;;;;1.85;1.45;;;;;;;;;;5116219;28;20317;-68
2023/08/04 12:08:55;;;;;;;1.63;1.20;;;;;;;;;;5114855;28;20208;-69
2023/08/04 12:11:24;;;;;;;2.78;1.65;;;;;;;;;;5115210;28;20310;-68
2023/08/04 12:13:52;;;;;;;1.50;1.40;;;;;;;;;;5115103;28;20306;-68
2023/08/04 12:16:20;;;;;;;1.40;1.30;;;;;;;;;;5114963;28;20202;-68
2023/08/04 12:18:48;;;;;;;2.85;1.30;;;;;;;;;;5114267;28;20221;-68
2023/08/04 12:21:17;;;;;;;1.30;1.20;;;;;;;;;;5115493;28;20240;-68
2023/08/04 12:23:48;;;;;;;1.38;1.27;;;;;;;;;;5115151;28;20203;-68
2023/08/04 12:26:17;;;;;;;1.65;1.50;;;;;;;;;;5115170;28;20489;-69
2023/08/04 12:28:44;;;;;;;2.22;1.52;;;;;;;;;;5115195;28;20199;-69
2023/08/04 12:31:12;;;;;;;1.70;1.60;;;;;;;;;;5115465;28;20297;-69
2023/08/04 12:33:40;;;;;;;1.70;1.60;;;;;;;;;;5116037;28;20232;-68
2023/08/04 12:36:07;;;;;;;1.98;1.63;;;;;;;;;;5115892;28;20209;-68
2023/08/04 12:38:35;;;;;;;1.58;1.48;;;;;;;;;;5115417;28;20285;-69
2023/08/04 12:41:02;;;;;;;1.67;1.52;;;;;;;;;;5115384;28;20297;-68
2023/08/04 12:43:31;;;;;;;2.10;1.65;;;;;;;;;;5114992;28;20748;-68
2023/08/04 12:45:58;;;;;;;2.72;1.52;;;;;;;;;;5119531;28;20226;-68
2023/08/04 12:48:26;;;;;;;2.40;1.67;;;;;;;;;;5119064;28;20225;-68
2023/08/04 12:50:54;;;;;;;2.78;1.65;;;;;;;;;;5119183;28;20242;-68
2023/08/04 12:53:21;;;;;;;2.03;1.50;;;;;;;;;;5119148;28;20203;-68
2023/08/04 12:55:49;;;;;;;1.80;1.70;;;;;;;;;;5119522;28;20278;-68
2023/08/04 12:58:16;;;;;;;1.75;1.58;;;;;;;;;;5118254;28;20221;-68
2023/08/04 13:00:45;;;;;;;2.03;1.83;;;;;;;;;;5117116;28;20202;-68
2023/08/04 13:03:12;;;;;;;1.80;1.70;;;;;;;;;;5116833;28;20300;-68
2023/08/04 13:05:40;;;;;;;1.90;1.70;;;;;;;;;;5117051;28;20222;-68
2023/08/04 13:08:07;;;;;;;2.03;1.80;;;;;;;;;;5118255;28;20313;-69
2023/08/04 13:10:35;;;;;;;1.98;1.88;;;;;;;;;;5118560;28;20207;-68
2023/08/04 13:13:02;;;;;;;2.25;2.05;;;;;;;;;;5118631;28;20378;-69
2023/08/04 13:15:30;;;;;;;2.40;2.10;;;;;;;;;;5118866;28;20590;-68
2023/08/04 13:17:59;;;;;;;2.03;1.83;;;;;;;;;;5118422;28;20238;-68
2023/08/04 13:20:26;;;;;;;2.35;1.90;;;;;;;;;;5118809;28;20213;-68
2023/08/04 13:22:53;;;;;;;2.75;2.25;;;;;;;;;;5117981;28;20203;-68
2023/08/04 13:25:21;;;;;;;2.33;2.15;;;;;;;;;;5118496;28;20202;-69
2023/08/04 13:27:48;;;;;;;2.00;1.90;;;;;;;;;;5118195;28;20203;-69
2023/08/04 13:30:15;;;;;;;2.20;2.00;;;;;;;;;;5118573;28;20579;-68
2023/08/04 13:32:43;;;;;;;1.85;1.75;;;;;;;;;;5118200;28;20218;-68
2023/08/04 13:35:12;;;;;;;2.00;1.90;;;;;;;;;;5117741;28;20198;-68
2023/08/04 13:37:39;;;;;;;1.80;1.70;;;;;;;;;;5118724;28;20241;-68
2023/08/04 13:40:07;;;;;;;1.80;1.70;;;;;;;;;;5118053;28;20210;-68
2023/08/04 13:42:34;;;;;;;1.95;1.80;;;;;;;;;;5118377;28;20470;-69
2023/08/04 13:45:02;;;;;;;2.00;1.80;;;;;;;;;;5118168;28;20207;-69
2023/08/04 13:47:29;;;;;;;1.88;1.77;;;;;;;;;;5118507;28;20328;-68
2023/08/04 13:49:56;;;;;;;1.90;1.73;;;;;;;;;;5118319;28;20298;-68
2023/08/04 13:52:25;;;;;;;1.90;1.80;;;;;;;;;;5117876;28;20223;-69
2023/08/04 13:54:53;;;;;;;1.70;1.60;;;;;;;;;;5117900;28;20293;-69
2023/08/04 13:57:20;;;;;;;1.90;1.73;;;;;;;;;;5117382;28;20206;-69
2023/08/04 13:59:48;;;;;;;1.80;1.70;;;;;;;;;;5116972;28;20287;-68
2023/08/04 14:02:15;;;;;;;2.00;1.80;;;;;;;;;;5117943;28;20302;-68
2023/08/04 14:04:43;;;;;;;1.65;1.55;;;;;;;;;;5118278;28;20220;-69
2023/08/04 14:07:10;;;;;;;1.65;1.55;;;;;;;;;;5117567;28;20219;-69
2023/08/04 14:09:39;;;;;;;1.77;1.50;;;;;;;;;;5117247;28;20203;-68
2023/08/04 14:12:07;;;;;;;1.63;1.52;;;;;;;;;;5117743;28;20633;-68
2023/08/04 14:14:35;;;;;;;1.58;1.48;;;;;;;;;;5117683;28;20203;-69
2023/08/04 14:17:03;;;;;;;1.88;1.70;;;;;;;;;;5117817;28;20206;-69
2023/08/04 14:19:30;;;;;;;2.00;1.58;;;;;;;;;;5116995;28;20306;-68
2023/08/04 14:21:58;;;;;;;1.73;1.63;;;;;;;;;;5117279;28;20199;-69
2023/08/04 14:24:26;;;;;;;1.98;1.85;;;;;;;;;;5116986;28;20195;-68
2023/08/04 14:26:55;;;;;;;2.00;1.80;;;;;;;;;;5117204;28;20321;-69
2023/08/04 14:29:22;;;;;;;2.85;1.70;;;;;;;;;;5116261;28;20205;-69
2023/08/04 14:31:49;;;;;;;1.83;1.70;;;;;;;;;;5116855;28;20317;-68
2023/08/04 14:34:17;;;;;;;1.85;1.75;;;;;;;;;;5117918;28;20195;-69
2023/08/04 14:36:44;;;;;;;2.47;1.63;;;;;;;;;;5116673;28;20286;-69
2023/08/04 14:39:12;;;;;;;2.00;1.77;;;;;;;;;;5117206;28;20213;-68
2023/08/04 14:41:39;;;;;;;1.60;1.50;;;;;;;;;;5117390;28;20584;-68
2023/08/04 14:44:08;;;;;;;1.70;1.60;;;;;;;;;;5117650;28;20306;-69
2023/08/04 14:46:35;;;;;;;1.63;1.50;;;;;;;;;;5117170;28;20671;-69
2023/08/04 14:49:04;;;;;;;2.05;1.50;;;;;;;;;;5116587;28;20305;-69